sensor_id;sensor_type;location;lat;lon;timestamp;P1;durP1;ratioP1;P2;durP2;ratioP2
18322;SDS011;9287;49.456;11.064;2023-04-24T00:00:12;2.50;;;1.50;;
18322;SDS011;9287;49.456;11.064;2023-04-24T00:02:47;2.00;;;1.30;;
18322;SDS011;9287;49.456;11.064;2023-04-24T00:05:18;1.97;;;1.27;;
18322;SDS011;9287;49.456;11.064;2023-04-24T00:07:46;1.40;;;0.90;;
18322;SDS011;9287;49.456;11.064;2023-04-24T00:10:16;1.47;;;1.10;;
18322;SDS011;9287;49.456;11.064;2023-04-24T00:12:43;3.60;;;1.40;;
18322;SDS011;9287;49.456;11.064;2023-04-24T00:15:12;2.23;;;1.10;;
18322;SDS011;9287;49.456;11.064;2023-04-24T00:17:41;2.57;;;1.30;;
18322;SDS011;9287;49.456;11.064;2023-04-24T00:20:10;1.07;;;0.97;;
18322;SDS011;9287;49.456;11.064;2023-04-24T00:22:40;1.93;;;1.30;;
18322;SDS011;9287;49.456;11.064;2023-04-24T00:25:12;1.80;;;1.20;;
18322;SDS011;9287;49.456;11.064;2023-04-24T00:27:42;3.97;;;1.10;;
18322;SDS011;9287;49.456;11.064;2023-04-24T00:30:10;1.10;;;1.00;;
18322;SDS011;9287;49.456;11.064;2023-04-24T00:32:40;1.17;;;1.00;;
18322;SDS011;9287;49.456;11.064;2023-04-24T00:35:08;2.60;;;1.10;;
18322;SDS011;9287;49.456;11.064;2023-04-24T00:37:38;3.73;;;1.30;;
18322;SDS011;9287;49.456;11.064;2023-04-24T00:40:09;1.93;;;1.43;;
18322;SDS011;9287;49.456;11.064;2023-04-24T00:42:40;2.83;;;1.20;;
18322;SDS011;9287;49.456;11.064;2023-04-24T00:45:10;2.40;;;1.77;;
18322;SDS011;9287;49.456;11.064;2023-04-24T00:47:39;3.70;;;1.87;;
18322;SDS011;9287;49.456;11.064;2023-04-24T00:50:10;2.13;;;1.23;;
18322;SDS011;9287;49.456;11.064;2023-04-24T00:52:39;2.43;;;1.80;;
18322;SDS011;9287;49.456;11.064;2023-04-24T00:55:12;1.97;;;1.60;;
18322;SDS011;9287;49.456;11.064;2023-04-24T00:57:41;3.43;;;1.30;;
18322;SDS011;9287;49.456;11.064;2023-04-24T01:00:11;2.87;;;1.70;;
18322;SDS011;9287;49.456;11.064;2023-04-24T01:02:44;1.10;;;0.90;;
18322;SDS011;9287;49.456;11.064;2023-04-24T01:05:16;1.67;;;1.47;;
18322;SDS011;9287;49.456;11.064;2023-04-24T01:07:45;1.97;;;1.20;;
18322;SDS011;9287;49.456;11.064;2023-04-24T01:10:23;1.63;;;0.90;;
18322;SDS011;9287;49.456;11.064;2023-04-24T01:12:58;1.30;;;1.10;;
18322;SDS011;9287;49.456;11.064;2023-04-24T01:15:26;1.47;;;0.87;;
18322;SDS011;9287;49.456;11.064;2023-04-24T01:17:54;0.80;;;0.80;;
18322;SDS011;9287;49.456;11.064;2023-04-24T01:20:22;2.77;;;0.90;;
18322;SDS011;9287;49.456;11.064;2023-04-24T01:22:56;1.27;;;0.63;;
18322;SDS011;9287;49.456;11.064;2023-04-24T01:25:31;0.73;;;0.70;;
18322;SDS011;9287;49.456;11.064;2023-04-24T01:28:00;1.53;;;0.80;;
18322;SDS011;9287;49.456;11.064;2023-04-24T01:30:28;2.40;;;0.50;;
18322;SDS011;9287;49.456;11.064;2023-04-24T01:32:56;0.90;;;0.63;;
18322;SDS011;9287;49.456;11.064;2023-04-24T01:35:31;1.10;;;0.70;;
18322;SDS011;9287;49.456;11.064;2023-04-24T01:38:07;0.93;;;0.60;;
18322;SDS011;9287;49.456;11.064;2023-04-24T01:40:38;0.77;;;0.73;;
18322;SDS011;9287;49.456;11.064;2023-04-24T01:43:06;2.40;;;0.80;;
18322;SDS011;9287;49.456;11.064;2023-04-24T01:45:34;0.80;;;0.60;;
18322;SDS011;9287;49.456;11.064;2023-04-24T01:48:02;0.80;;;0.60;;
18322;SDS011;9287;49.456;11.064;2023-04-24T01:50:33;0.60;;;0.60;;
18322;SDS011;9287;49.456;11.064;2023-04-24T01:53:02;0.53;;;0.53;;
18322;SDS011;9287;49.456;11.064;2023-04-24T01:55:32;0.87;;;0.67;;
18322;SDS011;9287;49.456;11.064;2023-04-24T01:58:00;1.23;;;0.60;;
18322;SDS011;9287;49.456;11.064;2023-04-24T02:00:29;0.77;;;0.63;;
18322;SDS011;9287;49.456;11.064;2023-04-24T02:02:57;0.60;;;0.40;;
18322;SDS011;9287;49.456;11.064;2023-04-24T02:05:28;1.33;;;0.60;;
18322;SDS011;9287;49.456;11.064;2023-04-24T02:07:57;0.57;;;0.50;;
18322;SDS011;9287;49.456;11.064;2023-04-24T02:10:24;2.97;;;0.70;;
18322;SDS011;9287;49.456;11.064;2023-04-24T02:12:56;0.53;;;0.53;;
18322;SDS011;9287;49.456;11.064;2023-04-24T02:15:30;1.83;;;0.50;;
18322;SDS011;9287;49.456;11.064;2023-04-24T02:18:05;0.50;;;0.50;;
18322;SDS011;9287;49.456;11.064;2023-04-24T02:20:35;0.57;;;0.53;;
18322;SDS011;9287;49.456;11.064;2023-04-24T02:23:06;1.33;;;0.60;;
18322;SDS011;9287;49.456;11.064;2023-04-24T02:25:35;0.83;;;0.60;;
18322;SDS011;9287;49.456;11.064;2023-04-24T02:28:07;0.43;;;0.40;;
18322;SDS011;9287;49.456;11.064;2023-04-24T02:30:35;1.33;;;0.50;;
18322;SDS011;9287;49.456;11.064;2023-04-24T02:33:02;1.53;;;0.40;;
18322;SDS011;9287;49.456;11.064;2023-04-24T02:35:33;0.70;;;0.53;;
18322;SDS011;9287;49.456;11.064;2023-04-24T02:38:02;1.53;;;0.50;;
18322;SDS011;9287;49.456;11.064;2023-04-24T02:40:31;1.23;;;0.60;;
18322;SDS011;9287;49.456;11.064;2023-04-24T02:43:00;1.60;;;0.40;;
18322;SDS011;9287;49.456;11.064;2023-04-24T02:45:30;1.03;;;0.60;;
18322;SDS011;9287;49.456;11.064;2023-04-24T02:48:03;0.40;;;0.40;;
18322;SDS011;9287;49.456;11.064;2023-04-24T02:50:36;1.03;;;0.50;;
18322;SDS011;9287;49.456;11.064;2023-04-24T02:53:18;1.60;;;0.63;;
18322;SDS011;9287;49.456;11.064;2023-04-24T02:55:45;1.03;;;0.60;;
18322;SDS011;9287;49.456;11.064;2023-04-24T02:58:14;0.57;;;0.50;;
18322;SDS011;9287;49.456;11.064;2023-04-24T03:00:47;0.80;;;0.50;;
18322;SDS011;9287;49.456;11.064;2023-04-24T03:03:17;1.33;;;0.60;;
18322;SDS011;9287;49.456;11.064;2023-04-24T03:05:47;2.23;;;0.60;;
18322;SDS011;9287;49.456;11.064;2023-04-24T03:08:14;0.57;;;0.57;;
18322;SDS011;9287;49.456;11.064;2023-04-24T03:10:44;1.17;;;0.67;;
18322;SDS011;9287;49.456;11.064;2023-04-24T03:13:13;1.23;;;0.50;;
18322;SDS011;9287;49.456;11.064;2023-04-24T03:15:43;0.70;;;0.60;;
18322;SDS011;9287;49.456;11.064;2023-04-24T03:18:14;1.10;;;0.80;;
18322;SDS011;9287;49.456;11.064;2023-04-24T03:20:45;1.33;;;0.70;;
18322;SDS011;9287;49.456;11.064;2023-04-24T03:23:13;0.87;;;0.60;;
18322;SDS011;9287;49.456;11.064;2023-04-24T03:25:41;1.73;;;0.60;;
18322;SDS011;9287;49.456;11.064;2023-04-24T03:28:09;1.50;;;0.67;;
18322;SDS011;9287;49.456;11.064;2023-04-24T03:30:38;0.97;;;0.70;;
18322;SDS011;9287;49.456;11.064;2023-04-24T03:33:06;0.70;;;0.70;;
18322;SDS011;9287;49.456;11.064;2023-04-24T03:35:36;0.80;;;0.60;;
18322;SDS011;9287;49.456;11.064;2023-04-24T03:38:04;2.17;;;0.80;;
18322;SDS011;9287;49.456;11.064;2023-04-24T03:40:33;0.73;;;0.73;;
18322;SDS011;9287;49.456;11.064;2023-04-24T03:43:02;0.80;;;0.70;;
18322;SDS011;9287;49.456;11.064;2023-04-24T03:45:30;0.80;;;0.80;;
18322;SDS011;9287;49.456;11.064;2023-04-24T03:47:59;0.80;;;0.70;;
18322;SDS011;9287;49.456;11.064;2023-04-24T03:50:29;2.20;;;0.80;;
18322;SDS011;9287;49.456;11.064;2023-04-24T03:52:59;1.73;;;0.70;;
18322;SDS011;9287;49.456;11.064;2023-04-24T03:55:30;1.97;;;0.70;;
18322;SDS011;9287;49.456;11.064;2023-04-24T03:58:01;0.97;;;0.80;;
18322;SDS011;9287;49.456;11.064;2023-04-24T04:00:33;4.53;;;0.90;;
18322;SDS011;9287;49.456;11.064;2023-04-24T04:03:01;1.17;;;1.00;;
18322;SDS011;9287;49.456;11.064;2023-04-24T04:05:32;3.40;;;1.10;;
18322;SDS011;9287;49.456;11.064;2023-04-24T04:08:12;1.83;;;0.93;;
18322;SDS011;9287;49.456;11.064;2023-04-24T04:10:53;2.20;;;1.20;;
18322;SDS011;9287;49.456;11.064;2023-04-24T04:13:25;4.03;;;1.30;;
18322;SDS011;9287;49.456;11.064;2023-04-24T04:15:54;1.10;;;1.00;;
18322;SDS011;9287;49.456;11.064;2023-04-24T04:18:23;1.80;;;1.10;;
18322;SDS011;9287;49.456;11.064;2023-04-24T04:20:57;1.53;;;1.10;;
18322;SDS011;9287;49.456;11.064;2023-04-24T04:23:37;1.30;;;1.20;;
18322;SDS011;9287;49.456;11.064;2023-04-24T04:26:08;1.47;;;1.27;;
18322;SDS011;9287;49.456;11.064;2023-04-24T04:31:38;8.93;;;4.50;;
18322;SDS011;9287;49.456;11.064;2023-04-24T04:34:09;8.20;;;4.43;;
18322;SDS011;9287;49.456;11.064;2023-04-24T04:36:42;4.27;;;3.87;;
18322;SDS011;9287;49.456;11.064;2023-04-24T04:39:16;7.13;;;3.50;;
18322;SDS011;9287;49.456;11.064;2023-04-24T04:41:47;4.00;;;3.63;;
18322;SDS011;9287;49.456;11.064;2023-04-24T04:44:24;3.87;;;3.50;;
18322;SDS011;9287;49.456;11.064;2023-04-24T04:47:06;2.80;;;2.50;;
18322;SDS011;9287;49.456;11.064;2023-04-24T04:49:37;4.10;;;2.67;;
18322;SDS011;9287;49.456;11.064;2023-04-24T04:52:07;2.53;;;1.70;;
18322;SDS011;9287;49.456;11.064;2023-04-24T04:54:45;1.73;;;1.60;;
18322;SDS011;9287;49.456;11.064;2023-04-24T04:57:13;1.90;;;1.20;;
18322;SDS011;9287;49.456;11.064;2023-04-24T04:59:42;1.70;;;1.40;;
18322;SDS011;9287;49.456;11.064;2023-04-24T05:02:12;1.90;;;1.40;;
18322;SDS011;9287;49.456;11.064;2023-04-24T05:04:44;1.67;;;1.30;;
18322;SDS011;9287;49.456;11.064;2023-04-24T05:07:18;2.23;;;1.40;;
18322;SDS011;9287;49.456;11.064;2023-04-24T05:09:55;3.77;;;1.30;;
18322;SDS011;9287;49.456;11.064;2023-04-24T05:12:29;3.20;;;1.50;;
18322;SDS011;9287;49.456;11.064;2023-04-24T05:15:00;2.70;;;2.50;;
18322;SDS011;9287;49.456;11.064;2023-04-24T05:17:30;5.23;;;1.50;;
18322;SDS011;9287;49.456;11.064;2023-04-24T05:20:10;5.57;;;2.33;;
18322;SDS011;9287;49.456;11.064;2023-04-24T05:22:47;2.63;;;1.40;;
18322;SDS011;9287;49.456;11.064;2023-04-24T05:25:28;1.50;;;1.40;;
18322;SDS011;9287;49.456;11.064;2023-04-24T05:28:05;2.50;;;1.57;;
18322;SDS011;9287;49.456;11.064;2023-04-24T05:30:37;2.10;;;1.30;;
18322;SDS011;9287;49.456;11.064;2023-04-24T05:33:06;2.60;;;1.20;;
18322;SDS011;9287;49.456;11.064;2023-04-24T05:35:36;1.43;;;1.33;;
18322;SDS011;9287;49.456;11.064;2023-04-24T05:38:16;2.03;;;1.10;;
18322;SDS011;9287;49.456;11.064;2023-04-24T05:40:59;1.37;;;1.27;;
18322;SDS011;9287;49.456;11.064;2023-04-24T05:43:30;3.57;;;1.20;;
18322;SDS011;9287;49.456;11.064;2023-04-24T05:46:12;3.23;;;1.30;;
18322;SDS011;9287;49.456;11.064;2023-04-24T05:48:42;3.30;;;1.50;;
18322;SDS011;9287;49.456;11.064;2023-04-24T05:51:14;2.17;;;1.37;;
18322;SDS011;9287;49.456;11.064;2023-04-24T05:53:50;6.23;;;1.60;;
18322;SDS011;9287;49.456;11.064;2023-04-24T05:56:25;4.40;;;1.40;;
18322;SDS011;9287;49.456;11.064;2023-04-24T05:58:54;3.97;;;1.50;;
18322;SDS011;9287;49.456;11.064;2023-04-24T06:01:23;1.50;;;1.30;;
18322;SDS011;9287;49.456;11.064;2023-04-24T06:03:54;2.77;;;1.30;;
18322;SDS011;9287;49.456;11.064;2023-04-24T06:06:25;1.50;;;1.27;;
18322;SDS011;9287;49.456;11.064;2023-04-24T06:08:53;2.90;;;1.13;;
18322;SDS011;9287;49.456;11.064;2023-04-24T06:11:23;2.47;;;1.10;;
18322;SDS011;9287;49.456;11.064;2023-04-24T06:14:01;2.33;;;1.20;;
18322;SDS011;9287;49.456;11.064;2023-04-24T06:16:31;2.47;;;1.30;;
18322;SDS011;9287;49.456;11.064;2023-04-24T06:18:59;2.13;;;1.50;;
18322;SDS011;9287;49.456;11.064;2023-04-24T06:21:26;3.33;;;1.50;;
18322;SDS011;9287;49.456;11.064;2023-04-24T06:23:55;2.37;;;1.30;;
18322;SDS011;9287;49.456;11.064;2023-04-24T06:26:25;3.57;;;1.30;;
18322;SDS011;9287;49.456;11.064;2023-04-24T06:28:53;2.13;;;1.27;;
18322;SDS011;9287;49.456;11.064;2023-04-24T06:31:22;1.20;;;1.10;;
18322;SDS011;9287;49.456;11.064;2023-04-24T06:33:51;1.77;;;1.20;;
18322;SDS011;9287;49.456;11.064;2023-04-24T06:36:20;1.63;;;1.30;;
18322;SDS011;9287;49.456;11.064;2023-04-24T06:38:49;2.47;;;1.60;;
18322;SDS011;9287;49.456;11.064;2023-04-24T06:41:23;1.20;;;1.10;;
18322;SDS011;9287;49.456;11.064;2023-04-24T06:43:55;2.10;;;1.00;;
18322;SDS011;9287;49.456;11.064;2023-04-24T06:46:28;0.93;;;0.70;;
18322;SDS011;9287;49.456;11.064;2023-04-24T06:48:56;1.53;;;0.70;;
18322;SDS011;9287;49.456;11.064;2023-04-24T06:51:28;1.73;;;0.70;;
18322;SDS011;9287;49.456;11.064;2023-04-24T06:53:59;1.40;;;1.00;;
18322;SDS011;9287;49.456;11.064;2023-04-24T06:56:29;1.87;;;1.10;;
18322;SDS011;9287;49.456;11.064;2023-04-24T06:59:02;2.50;;;1.20;;
18322;SDS011;9287;49.456;11.064;2023-04-24T07:01:34;2.47;;;0.90;;
18322;SDS011;9287;49.456;11.064;2023-04-24T07:04:03;1.77;;;0.60;;
18322;SDS011;9287;49.456;11.064;2023-04-24T07:06:33;1.77;;;0.80;;
18322;SDS011;9287;49.456;11.064;2023-04-24T07:09:03;1.67;;;0.60;;
18322;SDS011;9287;49.456;11.064;2023-04-24T07:11:36;1.37;;;1.00;;
18322;SDS011;9287;49.456;11.064;2023-04-24T07:14:12;1.10;;;0.67;;
18322;SDS011;9287;49.456;11.064;2023-04-24T07:16:43;1.10;;;0.60;;
18322;SDS011;9287;49.456;11.064;2023-04-24T07:19:11;0.93;;;0.70;;
18322;SDS011;9287;49.456;11.064;2023-04-24T07:21:39;2.43;;;0.80;;
18322;SDS011;9287;49.456;11.064;2023-04-24T07:24:08;1.43;;;0.80;;
18322;SDS011;9287;49.456;11.064;2023-04-24T07:26:37;0.90;;;0.57;;
18322;SDS011;9287;49.456;11.064;2023-04-24T07:29:12;0.80;;;0.67;;
18322;SDS011;9287;49.456;11.064;2023-04-24T07:31:44;0.83;;;0.67;;
18322;SDS011;9287;49.456;11.064;2023-04-24T07:34:13;1.00;;;0.70;;
18322;SDS011;9287;49.456;11.064;2023-04-24T07:36:43;1.13;;;0.80;;
18322;SDS011;9287;49.456;11.064;2023-04-24T07:39:12;0.93;;;0.60;;
18322;SDS011;9287;49.456;11.064;2023-04-24T07:41:40;1.50;;;0.83;;
18322;SDS011;9287;49.456;11.064;2023-04-24T07:44:11;0.60;;;0.60;;
18322;SDS011;9287;49.456;11.064;2023-04-24T07:46:42;1.43;;;0.80;;
18322;SDS011;9287;49.456;11.064;2023-04-24T07:49:11;1.27;;;0.70;;
18322;SDS011;9287;49.456;11.064;2023-04-24T07:51:42;2.23;;;0.83;;
18322;SDS011;9287;49.456;11.064;2023-04-24T07:54:14;0.70;;;0.70;;
18322;SDS011;9287;49.456;11.064;2023-04-24T07:56:43;1.30;;;0.60;;
18322;SDS011;9287;49.456;11.064;2023-04-24T07:59:12;1.17;;;0.70;;
18322;SDS011;9287;49.456;11.064;2023-04-24T08:01:46;1.50;;;0.70;;
18322;SDS011;9287;49.456;11.064;2023-04-24T08:04:19;0.70;;;0.70;;
18322;SDS011;9287;49.456;11.064;2023-04-24T08:06:52;3.60;;;1.03;;
18322;SDS011;9287;49.456;11.064;2023-04-24T08:09:20;0.70;;;0.70;;
18322;SDS011;9287;49.456;11.064;2023-04-24T08:11:52;1.73;;;0.83;;
18322;SDS011;9287;49.456;11.064;2023-04-24T08:14:21;0.90;;;0.80;;
18322;SDS011;9287;49.456;11.064;2023-04-24T08:16:53;0.80;;;0.80;;
18322;SDS011;9287;49.456;11.064;2023-04-24T08:19:23;0.80;;;0.80;;
18322;SDS011;9287;49.456;11.064;2023-04-24T08:21:52;2.13;;;0.83;;
18322;SDS011;9287;49.456;11.064;2023-04-24T08:24:22;1.10;;;1.10;;
18322;SDS011;9287;49.456;11.064;2023-04-24T08:26:59;1.23;;;1.10;;
18322;SDS011;9287;49.456;11.064;2023-04-24T08:29:29;3.17;;;0.90;;
18322;SDS011;9287;49.456;11.064;2023-04-24T08:32:00;2.60;;;1.20;;
18322;SDS011;9287;49.456;11.064;2023-04-24T08:34:33;2.37;;;1.10;;
18322;SDS011;9287;49.456;11.064;2023-04-24T08:37:05;1.47;;;1.10;;
18322;SDS011;9287;49.456;11.064;2023-04-24T08:39:33;1.10;;;1.00;;
18322;SDS011;9287;49.456;11.064;2023-04-24T08:42:01;1.20;;;1.10;;
18322;SDS011;9287;49.456;11.064;2023-04-24T08:44:34;1.77;;;1.33;;
18322;SDS011;9287;49.456;11.064;2023-04-24T08:47:04;1.50;;;1.30;;
18322;SDS011;9287;49.456;11.064;2023-04-24T08:49:35;1.20;;;1.07;;
18322;SDS011;9287;49.456;11.064;2023-04-24T08:52:03;1.67;;;1.17;;
18322;SDS011;9287;49.456;11.064;2023-04-24T08:54:33;1.47;;;1.00;;
18322;SDS011;9287;49.456;11.064;2023-04-24T08:57:02;1.20;;;1.10;;
18322;SDS011;9287;49.456;11.064;2023-04-24T08:59:30;1.20;;;1.10;;
18322;SDS011;9287;49.456;11.064;2023-04-24T09:01:59;2.27;;;1.20;;
18322;SDS011;9287;49.456;11.064;2023-04-24T09:04:28;3.70;;;1.20;;
18322;SDS011;9287;49.456;11.064;2023-04-24T09:06:57;1.37;;;1.00;;
18322;SDS011;9287;49.456;11.064;2023-04-24T09:09:25;1.10;;;0.90;;
18322;SDS011;9287;49.456;11.064;2023-04-24T09:11:57;2.70;;;1.07;;
18322;SDS011;9287;49.456;11.064;2023-04-24T09:14:25;1.20;;;1.00;;
18322;SDS011;9287;49.456;11.064;2023-04-24T09:16:54;1.10;;;0.97;;
18322;SDS011;9287;49.456;11.064;2023-04-24T09:19:21;1.13;;;1.03;;
18322;SDS011;9287;49.456;11.064;2023-04-24T09:21:51;1.17;;;0.90;;
18322;SDS011;9287;49.456;11.064;2023-04-24T09:24:20;1.30;;;0.90;;
18322;SDS011;9287;49.456;11.064;2023-04-24T09:26:55;0.77;;;0.68;;
18322;SDS011;9287;49.456;11.064;2023-04-24T09:29:25;0.90;;;0.90;;
18322;SDS011;9287;49.456;11.064;2023-04-24T09:31:53;1.33;;;0.90;;
18322;SDS011;9287;49.456;11.064;2023-04-24T09:34:21;2.77;;;0.83;;
18322;SDS011;9287;49.456;11.064;2023-04-24T09:36:53;1.83;;;0.80;;
18322;SDS011;9287;49.456;11.064;2023-04-24T09:39:21;2.00;;;0.80;;
18322;SDS011;9287;49.456;11.064;2023-04-24T09:41:49;1.27;;;0.90;;
18322;SDS011;9287;49.456;11.064;2023-04-24T09:44:18;1.13;;;0.90;;
18322;SDS011;9287;49.456;11.064;2023-04-24T09:46:49;1.00;;;0.70;;
18322;SDS011;9287;49.456;11.064;2023-04-24T09:49:21;1.75;;;0.60;;
18322;SDS011;9287;49.456;11.064;2023-04-24T09:51:52;2.03;;;0.60;;
18322;SDS011;9287;49.456;11.064;2023-04-24T09:54:30;1.30;;;0.50;;
18322;SDS011;9287;49.456;11.064;2023-04-24T09:56:57;0.97;;;0.60;;
18322;SDS011;9287;49.456;11.064;2023-04-24T09:59:26;0.60;;;0.60;;
18322;SDS011;9287;49.456;11.064;2023-04-24T10:01:54;1.07;;;0.70;;
18322;SDS011;9287;49.456;11.064;2023-04-24T10:04:26;2.43;;;0.67;;
18322;SDS011;9287;49.456;11.064;2023-04-24T10:06:56;1.13;;;0.80;;
18322;SDS011;9287;49.456;11.064;2023-04-24T10:09:25;1.10;;;0.60;;
18322;SDS011;9287;49.456;11.064;2023-04-24T10:11:54;1.37;;;0.83;;
18322;SDS011;9287;49.456;11.064;2023-04-24T10:14:23;1.73;;;0.60;;
18322;SDS011;9287;49.456;11.064;2023-04-24T10:16:52;2.00;;;0.60;;
18322;SDS011;9287;49.456;11.064;2023-04-24T10:19:22;1.03;;;0.50;;
18322;SDS011;9287;49.456;11.064;2023-04-24T10:21:53;0.83;;;0.57;;
18322;SDS011;9287;49.456;11.064;2023-04-24T10:24:23;0.40;;;0.40;;
18322;SDS011;9287;49.456;11.064;2023-04-24T10:26:51;1.00;;;0.50;;
18322;SDS011;9287;49.456;11.064;2023-04-24T10:29:19;0.40;;;0.40;;
18322;SDS011;9287;49.456;11.064;2023-04-24T10:31:48;1.43;;;0.40;;
18322;SDS011;9287;49.456;11.064;2023-04-24T10:34:16;1.23;;;0.40;;
18322;SDS011;9287;49.456;11.064;2023-04-24T10:36:48;0.90;;;0.40;;
18322;SDS011;9287;49.456;11.064;2023-04-24T10:39:23;0.70;;;0.50;;
18322;SDS011;9287;49.456;11.064;2023-04-24T10:41:53;1.13;;;0.40;;
18322;SDS011;9287;49.456;11.064;2023-04-24T10:44:23;1.03;;;0.50;;
18322;SDS011;9287;49.456;11.064;2023-04-24T10:46:52;1.20;;;0.40;;
18322;SDS011;9287;49.456;11.064;2023-04-24T10:49:27;0.37;;;0.37;;
18322;SDS011;9287;49.456;11.064;2023-04-24T10:51:59;0.80;;;0.50;;
18322;SDS011;9287;49.456;11.064;2023-04-24T10:54:33;0.90;;;0.60;;
18322;SDS011;9287;49.456;11.064;2023-04-24T11:00:15;0.50;;;0.50;;
18322;SDS011;9287;49.456;11.064;2023-04-24T11:02:45;1.50;;;0.40;;
18322;SDS011;9287;49.456;11.064;2023-04-24T11:05:17;2.07;;;0.43;;
18322;SDS011;9287;49.456;11.064;2023-04-24T11:10:41;0.77;;;0.50;;
18322;SDS011;9287;49.456;11.064;2023-04-24T11:13:14;0.77;;;0.40;;
18322;SDS011;9287;49.456;11.064;2023-04-24T11:15:42;0.33;;;0.30;;
18322;SDS011;9287;49.456;11.064;2023-04-24T11:18:14;0.50;;;0.50;;
18322;SDS011;9287;49.456;11.064;2023-04-24T11:20:43;0.40;;;0.40;;
18322;SDS011;9287;49.456;11.064;2023-04-24T11:23:12;0.40;;;0.40;;
18322;SDS011;9287;49.456;11.064;2023-04-24T11:25:42;1.70;;;0.50;;
18322;SDS011;9287;49.456;11.064;2023-04-24T11:28:10;0.67;;;0.60;;
18322;SDS011;9287;49.456;11.064;2023-04-24T11:30:42;0.93;;;0.70;;
18322;SDS011;9287;49.456;11.064;2023-04-24T11:33:10;0.60;;;0.60;;
18322;SDS011;9287;49.456;11.064;2023-04-24T11:35:39;0.60;;;0.60;;
18322;SDS011;9287;49.456;11.064;2023-04-24T11:38:07;2.30;;;0.60;;
18322;SDS011;9287;49.456;11.064;2023-04-24T11:40:51;0.60;;;0.60;;
18322;SDS011;9287;49.456;11.064;2023-04-24T11:43:19;0.83;;;0.80;;
18322;SDS011;9287;49.456;11.064;2023-04-24T11:45:48;0.70;;;0.70;;
18322;SDS011;9287;49.456;11.064;2023-04-24T11:48:18;0.70;;;0.70;;
18322;SDS011;9287;49.456;11.064;2023-04-24T11:50:50;0.70;;;0.70;;
18322;SDS011;9287;49.456;11.064;2023-04-24T11:53:19;0.70;;;0.70;;
18322;SDS011;9287;49.456;11.064;2023-04-24T11:55:47;3.60;;;0.80;;
18322;SDS011;9287;49.456;11.064;2023-04-24T11:58:17;2.23;;;0.73;;
18322;SDS011;9287;49.456;11.064;2023-04-24T12:00:55;1.07;;;0.60;;
18322;SDS011;9287;49.456;11.064;2023-04-24T12:03:24;0.63;;;0.63;;
18322;SDS011;9287;49.456;11.064;2023-04-24T12:06:04;0.60;;;0.60;;
18322;SDS011;9287;49.456;11.064;2023-04-24T12:08:33;1.53;;;0.60;;
18322;SDS011;9287;49.456;11.064;2023-04-24T12:11:04;0.90;;;0.80;;
18322;SDS011;9287;49.456;11.064;2023-04-24T12:13:34;0.80;;;0.80;;
18322;SDS011;9287;49.456;11.064;2023-04-24T12:16:03;1.00;;;0.80;;
18322;SDS011;9287;49.456;11.064;2023-04-24T12:18:32;2.17;;;0.70;;
18322;SDS011;9287;49.456;11.064;2023-04-24T12:21:18;0.90;;;0.70;;
18322;SDS011;9287;49.456;11.064;2023-04-24T12:23:48;1.00;;;0.90;;
18322;SDS011;9287;49.456;11.064;2023-04-24T12:26:17;1.40;;;0.80;;
18322;SDS011;9287;49.456;11.064;2023-04-24T12:28:48;1.63;;;1.00;;
18322;SDS011;9287;49.456;11.064;2023-04-24T12:31:16;0.80;;;0.80;;
18322;SDS011;9287;49.456;11.064;2023-04-24T12:33:48;2.50;;;0.63;;
18322;SDS011;9287;49.456;11.064;2023-04-24T12:36:16;0.70;;;0.70;;
18322;SDS011;9287;49.456;11.064;2023-04-24T12:38:44;1.00;;;0.80;;
18322;SDS011;9287;49.456;11.064;2023-04-24T12:41:13;0.70;;;0.70;;
18322;SDS011;9287;49.456;11.064;2023-04-24T12:43:51;0.83;;;0.50;;
18322;SDS011;9287;49.456;11.064;2023-04-24T12:46:20;1.23;;;0.60;;
18322;SDS011;9287;49.456;11.064;2023-04-24T12:48:48;0.80;;;0.60;;
18322;SDS011;9287;49.456;11.064;2023-04-24T12:51:17;1.17;;;0.60;;
18322;SDS011;9287;49.456;11.064;2023-04-24T12:53:45;2.47;;;0.70;;
18322;SDS011;9287;49.456;11.064;2023-04-24T12:56:14;1.67;;;0.80;;
18322;SDS011;9287;49.456;11.064;2023-04-24T12:58:43;2.17;;;0.60;;
18322;SDS011;9287;49.456;11.064;2023-04-24T13:01:12;1.17;;;0.70;;
18322;SDS011;9287;49.456;11.064;2023-04-24T13:03:40;0.90;;;0.63;;
18322;SDS011;9287;49.456;11.064;2023-04-24T13:06:09;1.53;;;0.60;;
18322;SDS011;9287;49.456;11.064;2023-04-24T13:08:37;1.07;;;0.70;;
18322;SDS011;9287;49.456;11.064;2023-04-24T13:11:04;0.63;;;0.63;;
18322;SDS011;9287;49.456;11.064;2023-04-24T13:13:32;0.97;;;0.60;;
18322;SDS011;9287;49.456;11.064;2023-04-24T13:16:00;0.50;;;0.50;;
18322;SDS011;9287;49.456;11.064;2023-04-24T13:18:29;1.63;;;0.60;;
18322;SDS011;9287;49.456;11.064;2023-04-24T13:20:57;0.70;;;0.70;;
18322;SDS011;9287;49.456;11.064;2023-04-24T13:23:25;1.03;;;0.70;;
18322;SDS011;9287;49.456;11.064;2023-04-24T13:25:54;0.70;;;0.70;;
18322;SDS011;9287;49.456;11.064;2023-04-24T13:28:23;0.80;;;0.60;;
18322;SDS011;9287;49.456;11.064;2023-04-24T13:30:51;1.27;;;0.70;;
18322;SDS011;9287;49.456;11.064;2023-04-24T13:33:19;1.00;;;0.57;;
18322;SDS011;9287;49.456;11.064;2023-04-24T13:35:48;0.73;;;0.70;;
18322;SDS011;9287;49.456;11.064;2023-04-24T13:38:16;0.83;;;0.80;;
18322;SDS011;9287;49.456;11.064;2023-04-24T13:40:47;1.43;;;0.80;;
18322;SDS011;9287;49.456;11.064;2023-04-24T13:43:16;0.97;;;0.80;;
18322;SDS011;9287;49.456;11.064;2023-04-24T13:45:44;0.80;;;0.80;;
18322;SDS011;9287;49.456;11.064;2023-04-24T13:48:11;4.27;;;1.00;;
18322;SDS011;9287;49.456;11.064;2023-04-24T13:50:41;0.70;;;0.70;;
18322;SDS011;9287;49.456;11.064;2023-04-24T13:53:13;0.60;;;0.60;;
18322;SDS011;9287;49.456;11.064;2023-04-24T13:55:41;1.10;;;1.00;;
18322;SDS011;9287;49.456;11.064;2023-04-24T13:58:09;1.80;;;0.90;;
18322;SDS011;9287;49.456;11.064;2023-04-24T14:00:37;1.33;;;0.90;;
18322;SDS011;9287;49.456;11.064;2023-04-24T14:03:05;1.57;;;1.20;;
18322;SDS011;9287;49.456;11.064;2023-04-24T14:05:33;1.30;;;1.20;;
18322;SDS011;9287;49.456;11.064;2023-04-24T14:08:04;1.53;;;1.10;;
18322;SDS011;9287;49.456;11.064;2023-04-24T14:10:33;0.90;;;0.90;;
18322;SDS011;9287;49.456;11.064;2023-04-24T14:13:02;0.97;;;0.83;;
18322;SDS011;9287;49.456;11.064;2023-04-24T14:15:31;0.70;;;0.70;;
18322;SDS011;9287;49.456;11.064;2023-04-24T14:18:02;3.23;;;0.80;;
18322;SDS011;9287;49.456;11.064;2023-04-24T14:20:33;0.90;;;0.90;;
18322;SDS011;9287;49.456;11.064;2023-04-24T14:23:01;1.10;;;1.00;;
18322;SDS011;9287;49.456;11.064;2023-04-24T14:25:29;2.17;;;1.10;;
18322;SDS011;9287;49.456;11.064;2023-04-24T14:27:59;1.13;;;0.90;;
18322;SDS011;9287;49.456;11.064;2023-04-24T14:30:27;1.20;;;0.90;;
18322;SDS011;9287;49.456;11.064;2023-04-24T14:32:55;1.67;;;0.93;;
18322;SDS011;9287;49.456;11.064;2023-04-24T14:35:23;0.93;;;0.93;;
18322;SDS011;9287;49.456;11.064;2023-04-24T14:37:54;0.90;;;0.90;;
18322;SDS011;9287;49.456;11.064;2023-04-24T14:40:23;1.17;;;0.70;;
18322;SDS011;9287;49.456;11.064;2023-04-24T14:42:54;0.90;;;0.90;;
18322;SDS011;9287;49.456;11.064;2023-04-24T14:45:24;1.10;;;0.97;;
18322;SDS011;9287;49.456;11.064;2023-04-24T14:47:53;0.90;;;0.80;;
18322;SDS011;9287;49.456;11.064;2023-04-24T14:50:21;1.67;;;0.80;;
18322;SDS011;9287;49.456;11.064;2023-04-24T14:52:50;2.93;;;0.90;;
18322;SDS011;9287;49.456;11.064;2023-04-24T14:55:18;1.20;;;0.90;;
18322;SDS011;9287;49.456;11.064;2023-04-24T14:57:45;0.80;;;0.80;;
18322;SDS011;9287;49.456;11.064;2023-04-24T15:00:17;2.10;;;0.50;;
18322;SDS011;9287;49.456;11.064;2023-04-24T15:02:50;1.27;;;0.63;;
18322;SDS011;9287;49.456;11.064;2023-04-24T15:05:19;0.60;;;0.50;;
18322;SDS011;9287;49.456;11.064;2023-04-24T15:07:47;1.13;;;0.60;;
18322;SDS011;9287;49.456;11.064;2023-04-24T15:10:16;1.63;;;0.80;;
18322;SDS011;9287;49.456;11.064;2023-04-24T15:12:45;6.80;;;0.80;;
18322;SDS011;9287;49.456;11.064;2023-04-24T15:15:21;0.83;;;0.80;;